Time;durP1;ratioP1;P1;durP2;ratioP2;P2;SDS_P1;SDS_P2;PMS_P1;PMS_P2;Temp;Humidity;BMP_temperature;BMP_pressure;BME280_temperature;BME280_humidity;BME280_pressure;Samples;Min_cycle;Max_cycle;Signal;HPM_P1;HPM_P2
2021/11/05 00:01:57;;;;;;;;;5.50;5.00;;;;;;;;5053292;28;45341;-69
2021/11/05 00:04:22;;;;;;;;;6.00;5.00;;;;;;;;5055106;28;47402;-70
2021/11/05 00:06:48;;;;;;;;;6.00;6.00;;;;;;;;5052943;28;45363;-70
2021/11/05 00:09:13;;;;;;;;;5.50;5.25;;;;;;;;5053217;28;45404;-69
2021/11/05 00:11:38;;;;;;;;;4.00;3.00;;;;;;;;5034553;28;45436;-70
2021/11/05 00:14:04;;;;;;;;;4.75;4.75;;;;;;;;5052853;28;46232;-70
2021/11/05 00:16:29;;;;;;;;;4.00;3.25;;;;;;;;5054953;28;45324;-68
2021/11/05 00:18:54;;;;;;;;;6.00;4.25;;;;;;;;5052857;28;45427;-69
2021/11/05 00:21:19;;;;;;;;;4.75;4.75;;;;;;;;5034570;28;45315;-69
2021/11/05 00:23:45;;;;;;;;;4.25;4.00;;;;;;;;5052599;28;45407;-70
2021/11/05 00:26:10;;;;;;;;;5.75;5.50;;;;;;;;5050825;28;45566;-70
2021/11/05 00:28:35;;;;;;;;;5.25;5.25;;;;;;;;5054609;28;45460;-69
2021/11/05 00:31:00;;;;;;;;;4.50;4.50;;;;;;;;5052267;28;45355;-70
2021/11/05 00:33:25;;;;;;;;;4.00;3.00;;;;;;;;5034608;28;46338;-69
2021/11/05 00:35:51;;;;;;;;;5.00;4.00;;;;;;;;5052797;28;45477;-69
2021/11/05 00:38:16;;;;;;;;;12.75;8.50;;;;;;;;5053061;28;46424;-71
2021/11/05 00:40:41;;;;;;;;;4.00;4.00;;;;;;;;5053099;28;45357;-70
2021/11/05 00:43:07;;;;;;;;;6.25;4.00;;;;;;;;5036028;28;47874;-70
2021/11/05 00:45:32;;;;;;;;;9.00;7.25;;;;;;;;5052388;28;45451;-70
2021/11/05 00:47:57;;;;;;;;;5.75;4.25;;;;;;;;5052635;28;45358;-68
2021/11/05 00:50:23;;;;;;;;;4.75;3.50;;;;;;;;5053154;28;45465;-70
2021/11/05 00:52:48;;;;;;;;;7.00;5.00;;;;;;;;5056315;28;46113;-72
2021/11/05 00:55:13;;;;;;;;;8.00;4.00;;;;;;;;5058081;28;45316;-70
2021/11/05 00:57:39;;;;;;;;;4.00;4.00;;;;;;;;5056298;28;45845;-70
2021/11/05 01:00:05;;;;;;;;;8.25;4.25;;;;;;;;5056150;28;45282;-70
2021/11/05 01:02:30;;;;;;;;;6.25;3.75;;;;;;;;5055720;28;47137;-70
2021/11/05 01:04:56;;;;;;;;;2.00;2.00;;;;;;;;5054773;28;45300;-70
2021/11/05 01:07:21;;;;;;;;;3.75;3.75;;;;;;;;5057222;28;45325;-70
2021/11/05 01:09:46;;;;;;;;;1.75;1.75;;;;;;;;5053832;28;45490;-70
2021/11/05 01:12:11;;;;;;;;;5.50;2.75;;;;;;;;5055475;28;46151;-69
2021/11/05 01:14:36;;;;;;;;;3.00;3.00;;;;;;;;5055644;28;45445;-69
2021/11/05 01:17:02;;;;;;;;;3.25;3.00;;;;;;;;5056091;28;45339;-69
2021/11/05 01:19:27;;;;;;;;;7.50;5.00;;;;;;;;5057981;28;45435;-69
2021/11/05 01:21:53;;;;;;;;;5.75;3.25;;;;;;;;5055749;28;45975;-70
2021/11/05 01:24:18;;;;;;;;;3.00;3.00;;;;;;;;5054986;28;45322;-70
2021/11/05 01:26:43;;;;;;;;;5.00;4.00;;;;;;;;5055788;28;45580;-70
2021/11/05 01:29:09;;;;;;;;;4.00;3.00;;;;;;;;5055778;28;45352;-70
2021/11/05 01:31:34;;;;;;;;;3.75;2.00;;;;;;;;5056709;28;45949;-70
2021/11/05 01:33:59;;;;;;;;;4.75;4.75;;;;;;;;5056442;28;45473;-70
2021/11/05 01:36:25;;;;;;;;;4.50;3.50;;;;;;;;5037368;28;49470;-70
2021/11/05 01:38:50;;;;;;;;;5.00;5.00;;;;;;;;5055246;28;45381;-70
2021/11/05 01:41:15;;;;;;;;;15.25;12.50;;;;;;;;5055389;28;47101;-70
2021/11/05 01:43:40;;;;;;;;;5.25;4.50;;;;;;;;5056415;28;45364;-70
2021/11/05 01:46:08;;;;;;;;;4.25;4.25;;;;;;;;5055083;28;45334;-70
2021/11/05 01:48:34;;;;;;;;;4.75;4.75;;;;;;;;5053723;28;45541;-70
2021/11/05 01:50:59;;;;;;;;;6.50;4.75;;;;;;;;5055061;28;45533;-70
2021/11/05 01:53:25;;;;;;;;;4.75;4.75;;;;;;;;5055066;28;45309;-69
2021/11/05 01:55:50;;;;;;;;;4.75;4.75;;;;;;;;5055404;28;45457;-70
2021/11/05 01:58:15;;;;;;;;;7.25;4.50;;;;;;;;5057335;28;45400;-70
2021/11/05 02:00:40;;;;;;;;;5.75;4.50;;;;;;;;5054898;28;47272;-70
2021/11/05 02:03:06;;;;;;;;;6.25;4.00;;;;;;;;5037616;28;46122;-69
2021/11/05 02:05:31;;;;;;;;;4.25;2.75;;;;;;;;5055334;28;45276;-69
2021/11/05 02:07:57;;;;;;;;;4.00;3.50;;;;;;;;5054669;28;45344;-70
2021/11/05 02:10:24;;;;;;;;;3.00;3.00;;;;;;;;5057226;28;46200;-70
2021/11/05 02:12:50;;;;;;;;;5.50;3.25;;;;;;;;5054820;28;45384;-70
2021/11/05 02:15:15;;;;;;;;;7.00;5.75;;;;;;;;5055001;28;45468;-70
2021/11/05 02:17:41;;;;;;;;;6.75;5.50;;;;;;;;5055174;28;45454;-71
2021/11/05 02:20:08;;;;;;;;;4.75;4.00;;;;;;;;5054736;28;46970;-71
2021/11/05 02:22:33;;;;;;;;;3.25;3.00;;;;;;;;5055939;28;45431;-70
2021/11/05 02:24:58;;;;;;;;;4.50;4.50;;;;;;;;5054153;28;45511;-69
2021/11/05 02:27:24;;;;;;;;;3.75;3.75;;;;;;;;5053451;28;45455;-70
2021/11/05 02:29:49;;;;;;;;;5.00;4.00;;;;;;;;5054667;28;46143;-69
2021/11/05 02:32:14;;;;;;;;;6.00;5.00;;;;;;;;5054943;28;45437;-69
2021/11/05 02:34:39;;;;;;;;;5.75;3.00;;;;;;;;5055622;28;45261;-70
2021/11/05 02:37:05;;;;;;;;;6.25;5.00;;;;;;;;5055741;28;45308;-70
2021/11/05 02:39:32;;;;;;;;;4.00;4.00;;;;;;;;5054355;28;45438;-70
2021/11/05 02:41:58;;;;;;;;;3.00;2.00;;;;;;;;5054373;28;45325;-70
2021/11/05 02:44:23;;;;;;;;;5.75;5.00;;;;;;;;5054579;28;45413;-70
2021/11/05 02:46:49;;;;;;;;;4.50;4.00;;;;;;;;5054689;28;45395;-70
2021/11/05 02:49:16;;;;;;;;;6.00;5.25;;;;;;;;5056513;28;46438;-69
2021/11/05 02:51:42;;;;;;;;;3.50;3.50;;;;;;;;5054022;28;45503;-69
2021/11/05 02:54:08;;;;;;;;;6.25;4.50;;;;;;;;5054174;28;45305;-70
2021/11/05 02:56:33;;;;;;;;;3.50;2.25;;;;;;;;5054210;28;45423;-70
2021/11/05 02:58:58;;;;;;;;;6.50;3.00;;;;;;;;5054306;28;47129;-70
2021/11/05 03:01:24;;;;;;;;;2.75;2.75;;;;;;;;5056222;28;45487;-70
2021/11/05 03:03:50;;;;;;;;;5.00;3.00;;;;;;;;5052410;28;45481;-70
2021/11/05 03:06:15;;;;;;;;;5.00;4.25;;;;;;;;5052653;28;45463;-70
2021/11/05 03:08:40;;;;;;;;;7.00;3.00;;;;;;;;5054089;28;45357;-70
2021/11/05 03:11:05;;;;;;;;;3.75;3.75;;;;;;;;5054144;28;45355;-70
2021/11/05 03:13:31;;;;;;;;;6.00;4.00;;;;;;;;5055626;28;45621;-70
2021/11/05 03:15:56;;;;;;;;;4.00;4.00;;;;;;;;5054622;28;45544;-70
2021/11/05 03:18:23;;;;;;;;;6.75;5.00;;;;;;;;5053433;28;45423;-70
2021/11/05 03:20:48;;;;;;;;;5.50;4.00;;;;;;;;5053732;28;45234;-70
2021/11/05 03:23:14;;;;;;;;;2.75;2.50;;;;;;;;5054077;28;45423;-69
2021/11/05 03:25:39;;;;;;;;;6.75;3.75;;;;;;;;5054552;28;45463;-69
2021/11/05 03:28:05;;;;;;;;;5.00;4.00;;;;;;;;5055152;28;46166;-69
2021/11/05 03:30:30;;;;;;;;;3.00;3.00;;;;;;;;5053404;28;45494;-69
2021/11/05 03:32:55;;;;;;;;;5.00;4.50;;;;;;;;5053127;28;45465;-69
2021/11/05 03:35:21;;;;;;;;;6.00;5.00;;;;;;;;5053885;28;45513;-69
2021/11/05 03:37:46;;;;;;;;;8.00;5.00;;;;;;;;5053528;28;45981;-69
2021/11/05 03:40:13;;;;;;;;;2.00;2.00;;;;;;;;5055763;28;45363;-69
2021/11/05 03:42:38;;;;;;;;;2.50;1.75;;;;;;;;5052227;28;45414;-69
2021/11/05 03:45:04;;;;;;;;;5.25;3.00;;;;;;;;5052015;28;45398;-71
2021/11/05 03:47:30;;;;;;;;;4.25;4.00;;;;;;;;5053044;28;45435;-70
2021/11/05 03:49:55;;;;;;;;;6.75;5.50;;;;;;;;5053126;28;45402;-71
2021/11/05 03:52:20;;;;;;;;;4.50;2.50;;;;;;;;5055494;28;45305;-68
2021/11/05 03:54:45;;;;;;;;;2.75;2.00;;;;;;;;5053209;28;45285;-69
2021/11/05 03:57:11;;;;;;;;;3.00;3.00;;;;;;;;5052909;28;45293;-69
2021/11/05 03:59:36;;;;;;;;;4.25;4.25;;;;;;;;5034928;28;45387;-69
2021/11/05 04:02:02;;;;;;;;;3.25;3.25;;;;;;;;5053112;28;45339;-70
2021/11/05 04:04:27;;;;;;;;;6.50;4.25;;;;;;;;5055708;28;45526;-70
2021/11/05 04:06:52;;;;;;;;;3.50;3.50;;;;;;;;5052819;28;46989;-70
2021/11/05 04:09:18;;;;;;;;;3.00;3.00;;;;;;;;5053168;28;45395;-70
2021/11/05 04:11:43;;;;;;;;;6.00;4.00;;;;;;;;5053388;28;45497;-69
2021/11/05 04:14:08;;;;;;;;;3.00;3.00;;;;;;;;5053057;28;45297;-70
2021/11/05 04:16:33;;;;;;;;;4.00;2.75;;;;;;;;5053950;28;46246;-70
2021/11/05 04:18:59;;;;;;;;;7.75;3.50;;;;;;;;5053463;28;45593;-70
2021/11/05 04:21:24;;;;;;;;;4.00;4.00;;;;;;;;5051208;28;45431;-70
2021/11/05 04:23:49;;;;;;;;;3.25;3.00;;;;;;;;5033272;28;45784;-70
2021/11/05 04:26:15;;;;;;;;;3.25;3.00;;;;;;;;5054212;28;46079;-69
2021/11/05 04:28:40;;;;;;;;;3.50;2.25;;;;;;;;5057277;28;46167;-70
2021/11/05 04:31:05;;;;;;;;;3.25;3.25;;;;;;;;5057746;28;45388;-69
2021/11/05 04:33:31;;;;;;;;;6.00;4.25;;;;;;;;5056590;28;45513;-70
2021/11/05 04:35:57;;;;;;;;;4.75;4.00;;;;;;;;5056347;28;45542;-70
2021/11/05 04:38:22;;;;;;;;;4.50;4.25;;;;;;;;5056372;28;45313;-69
2021/11/05 04:40:48;;;;;;;;;3.00;3.00;;;;;;;;5038207;28;45450;-70
2021/11/05 04:43:13;;;;;;;;;5.25;3.25;;;;;;;;5058272;28;45252;-69
2021/11/05 04:45:38;;;;;;;;;3.00;2.75;;;;;;;;5055576;28;45371;-70
2021/11/05 04:48:04;;;;;;;;;5.75;4.00;;;;;;;;5055484;28;45307;-70
2021/11/05 04:50:29;;;;;;;;;6.75;3.00;;;;;;;;5056299;28;45257;-70
2021/11/05 04:52:54;;;;;;;;;3.25;3.25;;;;;;;;5056368;28;45463;-69
2021/11/05 04:55:21;;;;;;;;;2.00;2.00;;;;;;;;5057502;28;46052;-70
2021/11/05 04:57:47;;;;;;;;;4.00;4.00;;;;;;;;5055418;28;45310;-70
2021/11/05 05:00:14;;;;;;;;;3.75;3.75;;;;;;;;5053815;28;45386;-69
2021/11/05 05:02:39;;;;;;;;;4.00;4.00;;;;;;;;5054513;28;45515;-68
2021/11/05 05:05:05;;;;;;;;;2.75;2.00;;;;;;;;5055567;28;45364;-70
2021/11/05 05:07:30;;;;;;;;;5.00;5.00;;;;;;;;5056815;28;45409;-69
2021/11/05 05:09:56;;;;;;;;;7.00;3.00;;;;;;;;5035633;28;45494;-70
2021/11/05 05:12:21;;;;;;;;;4.00;4.00;;;;;;;;5055455;28;45474;-70
2021/11/05 05:14:46;;;;;;;;;3.50;3.50;;;;;;;;5054805;28;46131;-70
2021/11/05 05:17:11;;;;;;;;;3.00;3.00;;;;;;;;5055038;28;45378;-70
2021/11/05 05:19:37;;;;;;;;;3.25;3.25;;;;;;;;5038221;28;45402;-70
2021/11/05 05:22:02;;;;;;;;;4.25;4.25;;;;;;;;5056465;28;45296;-70
2021/11/05 05:24:27;;;;;;;;;4.50;3.00;;;;;;;;5055096;28;46180;-70
2021/11/05 05:26:53;;;;;;;;;4.75;4.75;;;;;;;;5055123;28;45422;-69
2021/11/05 05:29:18;;;;;;;;;4.00;2.75;;;;;;;;5054307;28;45315;-70
2021/11/05 05:31:43;;;;;;;;;3.00;3.00;;;;;;;;5055565;28;45391;-70
2021/11/05 05:34:08;;;;;;;;;8.00;8.00;;;;;;;;5056705;28;45426;-70
2021/11/05 05:36:33;;;;;;;;;8.25;6.25;;;;;;;;5054355;28;45546;-69
2021/11/05 05:38:59;;;;;;;;;10.25;5.75;;;;;;;;5052812;28;45431;-69
2021/11/05 05:41:24;;;;;;;;;4.75;4.50;;;;;;;;5053681;28;45513;-70
2021/11/05 05:43:50;;;;;;;;;3.00;3.00;;;;;;;;5054343;28;45433;-69
2021/11/05 05:46:15;;;;;;;;;5.25;3.00;;;;;;;;5056704;28;45462;-70
2021/11/05 05:48:40;;;;;;;;;3.00;3.00;;;;;;;;5054591;28;45391;-70
2021/11/05 05:51:05;;;;;;;;;4.25;4.25;;;;;;;;5054660;28;45448;-70
2021/11/05 05:53:30;;;;;;;;;3.00;2.00;;;;;;;;5054690;28;45997;-70
2021/11/05 05:55:56;;;;;;;;;6.50;3.25;;;;;;;;5054452;28;45548;-71
2021/11/05 05:58:21;;;;;;;;;4.00;3.25;;;;;;;;5055988;28;45425;-70
2021/11/05 06:00:46;;;;;;;;;1.50;1.50;;;;;;;;5054188;28;45465;-69
2021/11/05 06:03:12;;;;;;;;;2.00;2.00;;;;;;;;5053458;28;45308;-70
2021/11/05 06:05:37;;;;;;;;;5.50;4.50;;;;;;;;5053222;28;45567;-69
2021/11/05 06:08:03;;;;;;;;;6.25;5.00;;;;;;;;5053562;28;45407;-71
2021/11/05 06:10:28;;;;;;;;;5.00;3.25;;;;;;;;5055963;28;45426;-72
2021/11/05 06:12:53;;;;;;;;;13.75;13.50;;;;;;;;5053205;28;45329;-70
2021/11/05 06:15:18;;;;;;;;;7.00;6.00;;;;;;;;5053726;28;45412;-70
2021/11/05 06:17:44;;;;;;;;;3.00;2.75;;;;;;;;5053466;28;45502;-71
2021/11/05 06:20:09;;;;;;;;;3.50;3.00;;;;;;;;5052023;28;45326;-71
2021/11/05 06:22:35;;;;;;;;;5.75;3.75;;;;;;;;5037078;28;46809;-72
2021/11/05 06:25:00;;;;;;;;;5.00;5.00;;;;;;;;5054237;28;45373;-71
2021/11/05 06:27:27;;;;;;;;;7.00;4.50;;;;;;;;5052954;28;45587;-72
2021/11/05 06:29:52;;;;;;;;;5.00;4.25;;;;;;;;5053056;28;45330;-70
2021/11/05 06:32:18;;;;;;;;;4.00;4.00;;;;;;;;5052681;28;46246;-71
2021/11/05 06:34:43;;;;;;;;;4.00;4.00;;;;;;;;5053513;28;45356;-71
2021/11/05 06:37:08;;;;;;;;;5.25;2.25;;;;;;;;5054654;28;45541;-70
2021/11/05 06:39:34;;;;;;;;;4.25;4.00;;;;;;;;5053200;28;45225;-70
2021/11/05 06:41:59;;;;;;;;;4.75;4.75;;;;;;;;5052743;28;46435;-71
2021/11/05 06:44:24;;;;;;;;;6.50;4.00;;;;;;;;5052709;28;45577;-71
2021/11/05 06:46:50;;;;;;;;;5.75;5.00;;;;;;;;5052962;28;45213;-70
2021/11/05 06:49:15;;;;;;;;;6.00;4.25;;;;;;;;5054529;28;45429;-73
2021/11/05 06:51:40;;;;;;;;;6.00;3.25;;;;;;;;5052713;28;46341;-70
2021/11/05 06:54:06;;;;;;;;;5.00;4.75;;;;;;;;5052676;28;45197;-70
2021/11/05 06:56:31;;;;;;;;;6.50;4.25;;;;;;;;5051246;28;45296;-69
2021/11/05 06:58:56;;;;;;;;;3.75;3.00;;;;;;;;5052090;28;45391;-70
2021/11/05 07:01:22;;;;;;;;;4.00;4.00;;;;;;;;5054094;28;47131;-70
2021/11/05 07:03:47;;;;;;;;;5.00;4.50;;;;;;;;5050118;28;45517;-68
2021/11/05 07:06:12;;;;;;;;;4.50;4.50;;;;;;;;5052606;28;45682;-70
2021/11/05 07:08:37;;;;;;;;;5.25;4.25;;;;;;;;5052585;28;45403;-70
2021/11/05 07:11:03;;;;;;;;;5.50;5.50;;;;;;;;5051949;28;45274;-69
2021/11/05 07:13:28;;;;;;;;;2.50;2.50;;;;;;;;5053981;28;45281;-71
2021/11/05 07:15:54;;;;;;;;;5.00;4.00;;;;;;;;5052294;28;45501;-71
2021/11/05 07:18:19;;;;;;;;;9.00;6.75;;;;;;;;5052251;28;45438;-70
2021/11/05 07:20:44;;;;;;;;;6.50;4.00;;;;;;;;5052112;28;46323;-69
2021/11/05 07:23:11;;;;;;;;;6.00;4.00;;;;;;;;5051643;28;45483;-70
2021/11/05 07:25:36;;;;;;;;;4.75;3.75;;;;;;;;5052871;28;45502;-71
2021/11/05 07:28:02;;;;;;;;;3.00;3.00;;;;;;;;5052866;28;45488;-71
2021/11/05 07:30:27;;;;;;;;;5.50;4.75;;;;;;;;5051448;28;46999;-70
2021/11/05 07:32:53;;;;;;;;;5.00;4.00;;;;;;;;5052135;28;45412;-70
2021/11/05 07:35:19;;;;;;;;;5.00;5.00;;;;;;;;5050784;28;45389;-70
2021/11/05 07:37:44;;;;;;;;;5.50;4.00;;;;;;;;5053212;28;45453;-70
2021/11/05 07:40:10;;;;;;;;;3.25;3.00;;;;;;;;5051317;28;45333;-69
2021/11/05 07:42:36;;;;;;;;;2.75;2.75;;;;;;;;5051943;28;45539;-70
2021/11/05 07:45:03;;;;;;;;;6.00;4.25;;;;;;;;5051800;28;45281;-71
2021/11/05 07:47:28;;;;;;;;;7.75;4.75;;;;;;;;5051932;28;45635;-71
2021/11/05 07:49:53;;;;;;;;;12.50;8.25;;;;;;;;5051420;28;46188;-72
2021/11/05 07:52:19;;;;;;;;;7.50;7.00;;;;;;;;5053676;28;45522;-71
2021/11/05 07:54:45;;;;;;;;;21.25;20.00;;;;;;;;5051452;28;45434;-71
2021/11/05 07:57:10;;;;;;;;;9.00;6.25;;;;;;;;5051593;28;45314;-72
2021/11/05 07:59:35;;;;;;;;;8.25;7.25;;;;;;;;5045034;28;45976;-71
2021/11/05 08:02:01;;;;;;;;;7.00;6.00;;;;;;;;5036497;28;45445;-73
2021/11/05 08:04:26;;;;;;;;;8.00;3.75;;;;;;;;5053489;28;45229;-71
2021/11/05 08:06:51;;;;;;;;;4.25;3.25;;;;;;;;5051782;28;45635;-71
2021/11/05 08:09:16;;;;;;;;;5.00;5.00;;;;;;;;5051312;28;45309;-70
2021/11/05 08:11:42;;;;;;;;;3.50;3.50;;;;;;;;5050943;28;45455;-71
2021/11/05 08:14:07;;;;;;;;;7.25;5.25;;;;;;;;5049651;28;45484;-72
2021/11/05 08:16:32;;;;;;;;;8.25;7.75;;;;;;;;5053165;28;45400;-72
2021/11/05 08:18:57;;;;;;;;;4.00;4.00;;;;;;;;5050113;28;46109;-71
2021/11/05 08:21:23;;;;;;;;;4.00;4.00;;;;;;;;5051333;28;45476;-73
2021/11/05 08:23:48;;;;;;;;;9.00;7.00;;;;;;;;5050979;28;45408;-72
2021/11/05 08:26:14;;;;;;;;;10.75;8.50;;;;;;;;5050846;28;45335;-71
2021/11/05 08:28:41;;;;;;;;;6.75;6.75;;;;;;;;5052315;28;47081;-70
2021/11/05 08:31:08;;;;;;;;;9.50;5.50;;;;;;;;5052125;28;45404;-73
2021/11/05 08:33:34;;;;;;;;;4.50;4.50;;;;;;;;5050525;28;45574;-72
2021/11/05 08:35:59;;;;;;;;;6.75;4.00;;;;;;;;5050756;28;45397;-72
2021/11/05 08:38:25;;;;;;;;;4.00;4.00;;;;;;;;5050555;28;45477;-72
2021/11/05 08:40:52;;;;;;;;;5.00;3.50;;;;;;;;5050701;28;45404;-71
2021/11/05 08:43:19;;;;;;;;;11.25;6.00;;;;;;;;5053087;28;45475;-71
2021/11/05 08:45:44;;;;;;;;;4.00;3.50;;;;;;;;5051024;28;45420;-71
2021/11/05 08:48:09;;;;;;;;;5.25;4.00;;;;;;;;5050761;28;46126;-72
2021/11/05 08:50:35;;;;;;;;;6.00;4.00;;;;;;;;5031141;28;45388;-72
2021/11/05 08:53:01;;;;;;;;;6.00;4.50;;;;;;;;5049721;28;45511;-72
2021/11/05 08:55:27;;;;;;;;;6.50;5.25;;;;;;;;5049098;28;45521;-71
2021/11/05 08:57:52;;;;;;;;;5.50;5.50;;;;;;;;5049662;28;45401;-71
2021/11/05 09:00:23;;;;;;;;;7.00;5.75;;;;;;;;5050436;28;45458;-72
2021/11/05 09:02:49;;;;;;;;;6.00;5.00;;;;;;;;5050251;28;45264;-72
2021/11/05 09:05:14;;;;;;;;;5.00;5.00;;;;;;;;5050811;28;45486;-71
2021/11/05 09:07:40;;;;;;;;;5.00;5.00;;;;;;;;5051108;28;46157;-72
2021/11/05 09:10:06;;;;;;;;;6.00;5.00;;;;;;;;5052167;28;45300;-72
2021/11/05 09:12:31;;;;;;;;;3.00;3.00;;;;;;;;5052612;28;45521;-72
2021/11/05 09:14:57;;;;;;;;;4.00;4.00;;;;;;;;5054521;28;45573;-72
2021/11/05 09:17:22;;;;;;;;;7.00;5.75;;;;;;;;5054228;28;46186;-73
2021/11/05 09:19:47;;;;;;;;;5.50;5.50;;;;;;;;5054283;28;47184;-72
2021/11/05 09:22:13;;;;;;;;;5.75;5.00;;;;;;;;5037482;28;45325;-72
2021/11/05 09:24:38;;;;;;;;;3.75;3.75;;;;;;;;5054314;28;45410;-71
2021/11/05 09:27:04;;;;;;;;;11.00;7.50;;;;;;;;5053523;28;46414;-72
2021/11/05 09:29:29;;;;;;;;;3.75;3.75;;;;;;;;5054235;28;45395;-72
2021/11/05 09:31:55;;;;;;;;;6.00;2.75;;;;;;;;5054424;28;45409;-72
2021/11/05 09:34:20;;;;;;;;;3.75;3.50;;;;;;;;5055281;28;45390;-70
2021/11/05 09:36:46;;;;;;;;;9.00;7.75;;;;;;;;5051065;28;47002;-72
2021/11/05 09:39:11;;;;;;;;;2.00;2.00;;;;;;;;5053489;28;45386;-71
2021/11/05 09:41:36;;;;;;;;;5.00;3.00;;;;;;;;5054085;28;45415;-72
2021/11/05 09:44:02;;;;;;;;;3.00;3.00;;;;;;;;5054148;28;45277;-70
2021/11/05 09:46:27;;;;;;;;;7.75;7.00;;;;;;;;5051384;28;47000;-72
2021/11/05 09:48:52;;;;;;;;;4.00;3.00;;;;;;;;5053397;28;45495;-72
2021/11/05 09:51:18;;;;;;;;;5.50;4.75;;;;;;;;5052828;28;45432;-71
2021/11/05 09:53:43;;;;;;;;;5.75;3.50;;;;;;;;5052512;28;45411;-71
2021/11/05 09:56:09;;;;;;;;;4.00;3.00;;;;;;;;5053567;28;45430;-72
2021/11/05 09:58:37;;;;;;;;;9.25;9.25;;;;;;;;5054718;28;45294;-72
2021/11/05 10:01:03;;;;;;;;;4.00;2.00;;;;;;;;5054204;28;45304;-71
2021/11/05 10:03:28;;;;;;;;;7.00;5.50;;;;;;;;5053702;28;45302;-72
2021/11/05 10:05:53;;;;;;;;;2.25;2.25;;;;;;;;5053101;28;45441;-71
2021/11/05 10:08:26;;;;;;;;;4.75;4.75;;;;;;;;5053727;28;45800;-73
2021/11/05 10:10:51;;;;;;;;;5.50;3.50;;;;;;;;5053745;28;45385;-73
2021/11/05 10:13:22;;;;;;;;;2.25;2.25;;;;;;;;5054141;28;45275;-71
2021/11/05 10:15:49;;;;;;;;;3.00;2.25;;;;;;;;5052321;28;46665;-72
2021/11/05 10:18:21;;;;;;;;;1.75;1.75;;;;;;;;5053429;28;45421;-71
2021/11/05 10:20:48;;;;;;;;;7.00;4.00;;;;;;;;5052904;28;45610;-71
2021/11/05 10:23:14;;;;;;;;;8.00;8.00;;;;;;;;5052253;28;45510;-72
2021/11/05 10:25:46;;;;;;;;;5.25;5.25;;;;;;;;5053805;28;45537;-72
2021/11/05 10:28:18;;;;;;;;;6.75;4.50;;;;;;;;5052711;28;45367;-71
2021/11/05 10:30:43;;;;;;;;;5.00;5.00;;;;;;;;5052845;28;45357;-71
2021/11/05 10:33:09;;;;;;;;;4.00;4.00;;;;;;;;5053100;28;45464;-71
2021/11/05 10:35:39;;;;;;;;;5.75;5.50;;;;;;;;5052013;28;45412;-72
2021/11/05 10:38:05;;;;;;;;;2.00;2.00;;;;;;;;5045126;28;45390;-71
2021/11/05 10:40:32;;;;;;;;;3.00;2.00;;;;;;;;5041164;28;45498;-72
2021/11/05 10:42:57;;;;;;;;;0.25;0.25;;;;;;;;5052894;28;45225;-72
2021/11/05 10:45:24;;;;;;;;;3.25;1.00;;;;;;;;5034341;28;46968;-72
2021/11/05 10:47:52;;;;;;;;;1.00;1.00;;;;;;;;5053161;28;45349;-70
2021/11/05 10:50:19;;;;;;;;;2.00;1.00;;;;;;;;5051398;28;45371;-72
2021/11/05 10:52:56;;;;;;;;;2.00;2.00;;;;;;;;5053634;28;45343;-72
2021/11/05 10:55:22;;;;;;;;;5.00;2.50;;;;;;;;5053686;28;45406;-71
2021/11/05 10:57:48;;;;;;;;;5.00;3.00;;;;;;;;5034176;28;45351;-71
2021/11/05 11:00:24;;;;;;;;;1.50;1.50;;;;;;;;5052209;28;45448;-71
2021/11/05 11:02:49;;;;;;;;;2.00;1.00;;;;;;;;5051826;28;45695;-72
2021/11/05 11:05:27;;;;;;;;;3.75;1.00;;;;;;;;5051864;28;45308;-72
2021/11/05 11:07:55;;;;;;;;;1.25;1.25;;;;;;;;5052760;28;45481;-70
2021/11/05 11:10:27;;;;;;;;;6.00;4.25;;;;;;;;5054207;28;45388;-71
2021/11/05 11:12:52;;;;;;;;;2.50;2.50;;;;;;;;5051897;28;45558;-72
2021/11/05 11:15:49;;;;;;;;;6.00;3.00;;;;;;;;5051679;28;46107;-71
2021/11/05 11:18:15;;;;;;;;;3.75;3.25;;;;;;;;4970334;28;45606;-71
2021/11/05 11:20:40;;;;;;;;;4.00;3.00;;;;;;;;4970286;28;45506;-71
2021/11/05 11:23:05;;;;;;;;;2.67;2.00;;;;;;;;4957113;28;45357;-73
2021/11/05 11:25:31;;;;;;;;;2.00;2.00;;;;;;;;4956350;28;46670;-72
2021/11/05 11:27:56;;;;;;;;;1.00;1.00;;;;;;;;4960875;28;45471;-72
2021/11/05 11:30:21;;;;;;;;;4.25;3.50;;;;;;;;4960412;28;45487;-72
2021/11/05 11:32:49;;;;;;;;;3.00;2.00;;;;;;;;4961854;28;45412;-71
2021/11/05 11:35:14;;;;;;;;;2.00;2.00;;;;;;;;4971228;28;46296;-71
2021/11/05 11:37:41;;;;;;;;;5.00;3.00;;;;;;;;4955910;28;45770;-71
2021/11/05 11:40:06;;;;;;;;;2.50;2.00;;;;;;;;4943680;28;45476;-72
2021/11/05 11:42:32;;;;;;;;;1.00;1.00;;;;;;;;4960393;28;45519;-72
2021/11/05 11:44:57;;;;;;;;;4.00;4.00;;;;;;;;4960340;28;46068;-73
2021/11/05 11:47:23;;;;;;;;;2.00;1.67;;;;;;;;4957675;28;45630;-72
2021/11/05 11:49:48;;;;;;;;;3.00;3.00;;;;;;;;4955442;28;45422;-72
2021/11/05 11:52:13;;;;;;;;;1.00;1.00;;;;;;;;4965476;28;45499;-72
2021/11/05 11:54:39;;;;;;;;;11.75;8.75;;;;;;;;5037769;28;47349;-72
2021/11/05 11:57:25;;;;;;;;;4.00;3.00;;;;;;;;5032633;28;45496;-72
2021/11/05 12:00:05;;;;;;;;;2.00;2.00;;;;;;;;5050369;28;45552;-73
2021/11/05 12:02:32;;;;;;;;;1.33;1.00;;;;;;;;5051220;28;45506;-72
2021/11/05 12:04:59;;;;;;;;;2.00;2.00;;;;;;;;5050877;28;45947;-73
2021/11/05 12:07:24;;;;;;;;;5.50;3.25;;;;;;;;5052782;28;45297;-73
2021/11/05 12:09:49;;;;;;;;;2.00;2.00;;;;;;;;5049829;28;45630;-71
2021/11/05 12:12:21;;;;;;;;;8.00;5.00;;;;;;;;5049300;28;45337;-71
2021/11/05 12:14:58;;;;;;;;;2.00;2.00;;;;;;;;5050941;28;46347;-73
2021/11/05 12:17:23;;;;;;;;;1.50;1.50;;;;;;;;5051203;28;45516;-72
2021/11/05 12:19:49;;;;;;;;;4.50;4.50;;;;;;;;5051358;28;45357;-72
2021/11/05 12:22:16;;;;;;;;;2.25;1.50;;;;;;;;5052992;28;45424;-72
2021/11/05 12:24:42;;;;;;;;;2.75;2.25;;;;;;;;5050559;28;47064;-72
2021/11/05 12:27:14;;;;;;;;;4.50;3.50;;;;;;;;5050888;28;45313;-71
2021/11/05 12:29:39;;;;;;;;;1.50;1.50;;;;;;;;5050597;28;45354;-71
2021/11/05 12:32:17;;;;;;;;;0.75;0.75;;;;;;;;5051122;28;45567;-71
2021/11/05 12:34:47;;;;;;;;;7.00;4.00;;;;;;;;5051994;28;45458;-71
2021/11/05 12:37:27;;;;;;;;;0.67;0.67;;;;;;;;5051169;28;45423;-71
2021/11/05 12:39:53;;;;;;;;;2.00;2.00;;;;;;;;5051131;28;45242;-70
2021/11/05 12:42:20;;;;;;;;;3.00;2.67;;;;;;;;5050500;28;45486;-72
2021/11/05 12:44:53;;;;;;;;;2.00;2.00;;;;;;;;5050531;28;45475;-71
2021/11/05 12:47:38;;;;;;;;;4.00;4.00;;;;;;;;5050571;28;45520;-71
2021/11/05 12:50:04;;;;;;;;;5.00;5.00;;;;;;;;5016453;28;45488;-75
2021/11/05 12:52:29;;;;;;;;;1.00;1.00;;;;;;;;5056581;28;45359;-73
2021/11/05 12:55:01;;;;;;;;;1.67;1.67;;;;;;;;5054245;28;46302;-75
2021/11/05 12:57:26;;;;;;;;;3.00;2.00;;;;;;;;5054794;28;45292;-75
2021/11/05 12:59:51;;;;;;;;;5.33;3.33;;;;;;;;5053674;28;45573;-74
2021/11/05 13:02:19;;;;;;;;;3.67;3.00;;;;;;;;5053263;28;45364;-75
2021/11/05 13:04:50;;;;;;;;;5.25;4.25;;;;;;;;5053971;28;46375;-74
2021/11/05 13:07:15;;;;;;;;;3.50;2.75;;;;;;;;5054013;28;45362;-74
2021/11/05 13:09:42;;;;;;;;;1.67;1.67;;;;;;;;5053587;28;45491;-73
2021/11/05 13:12:09;;;;;;;;;3.00;3.00;;;;;;;;5053542;28;45401;-73
2021/11/05 13:14:35;;;;;;;;;3.00;2.00;;;;;;;;5053177;28;46184;-73
2021/11/05 13:17:00;;;;;;;;;3.00;2.00;;;;;;;;5054148;28;45543;-73
2021/11/05 13:19:26;;;;;;;;;2.00;2.00;;;;;;;;5056219;28;45426;-73
2021/11/05 13:21:59;;;;;;;;;2.67;2.00;;;;;;;;5054099;28;45368;-72
2021/11/05 13:24:24;;;;;;;;;3.33;2.67;;;;;;;;5035097;28;47202;-72
2021/11/05 13:26:50;;;;;;;;;0.00;0.00;;;;;;;;5051741;28;45376;-73
2021/11/05 13:29:25;;;;;;;;;1.00;1.00;;;;;;;;5052216;28;45279;-72
2021/11/05 13:31:50;;;;;;;;;1.33;1.33;;;;;;;;5053663;28;45400;-73
2021/11/05 13:34:15;;;;;;;;;2.00;1.00;;;;;;;;5055269;28;46076;-73
2021/11/05 13:36:40;;;;;;;;;0.00;0.00;;;;;;;;5052826;28;45578;-72
2021/11/05 13:39:06;;;;;;;;;0.00;0.00;;;;;;;;5055257;28;45478;-73
2021/11/05 13:41:33;;;;;;;;;0.00;0.00;;;;;;;;5055858;28;45540;-72
2021/11/05 13:43:59;;;;;;;;;2.67;1.00;;;;;;;;5055431;28;45439;-70
2021/11/05 13:46:29;;;;;;;;;1.00;1.00;;;;;;;;5055581;28;45377;-73
2021/11/05 13:48:55;;;;;;;;;3.00;0.33;;;;;;;;5053215;28;45524;-73
2021/11/05 13:51:26;;;;;;;;;1.00;1.00;;;;;;;;5053399;28;45311;-72
2021/11/05 13:53:53;;;;;;;;;2.00;1.00;;;;;;;;5054039;28;46280;-70
2021/11/05 13:56:20;;;;;;;;;5.33;1.33;;;;;;;;5055414;28;45336;-71
2021/11/05 13:58:49;;;;;;;;;5.00;2.33;;;;;;;;5036866;28;45389;-71
2021/11/05 14:01:18;;;;;;;;;2.00;2.00;;;;;;;;5055343;28;45443;-71
2021/11/05 14:03:48;;;;;;;;;3.00;2.00;;;;;;;;5055218;28;46289;-71
2021/11/05 14:06:15;;;;;;;;;3.75;3.75;;;;;;;;5053394;28;45392;-71
2021/11/05 14:08:47;;;;;;;;;2.50;2.25;;;;;;;;5052996;28;45378;-70
2021/11/05 14:11:12;;;;;;;;;0.67;0.67;;;;;;;;5053891;28;45427;-70
2021/11/05 14:13:38;;;;;;;;;3.50;2.00;;;;;;;;5054360;28;46088;-73
2021/11/05 14:16:08;;;;;;;;;3.50;2.00;;;;;;;;5054643;28;45512;-72
2021/11/05 14:18:33;;;;;;;;;2.50;0.75;;;;;;;;5052876;28;45195;-72
2021/11/05 14:21:15;;;;;;;;;2.00;2.00;;;;;;;;5052388;28;45542;-72
2021/11/05 14:23:40;;;;;;;;;4.25;3.75;;;;;;;;5052001;28;46575;-72
2021/11/05 14:26:17;;;;;;;;;5.75;2.25;;;;;;;;5033520;28;45204;-71
2021/11/05 14:28:42;;;;;;;;;1.00;1.00;;;;;;;;5053485;28;45334;-72
2021/11/05 14:31:08;;;;;;;;;5.00;5.00;;;;;;;;5053937;28;45306;-72
2021/11/05 14:33:33;;;;;;;;;1.25;0.00;;;;;;;;5052404;28;46385;-72
2021/11/05 14:35:59;;;;;;;;;3.25;0.00;;;;;;;;5052276;28;45328;-71
2021/11/05 14:38:24;;;;;;;;;2.00;2.00;;;;;;;;5053034;28;45529;-73